Time;durP1;ratioP1;P1;durP2;ratioP2;P2;SDS_P1;SDS_P2;PMS_P1;PMS_P2;Temp;Humidity;BMP_temperature;BMP_pressure;BME280_temperature;BME280_humidity;BME280_pressure;Samples;Min_cycle;Max_cycle;Signal;HPM_P1;HPM_P2
2022/06/04 00:01:59;;;;;;;13.70;5.70;;;21.50;89.30;;;;;;5026826;28;20039;-63
2022/06/04 00:04:25;;;;;;;15.40;5.40;;;21.50;89.40;;;;;;5028299;28;20112;-63
2022/06/04 00:06:51;;;;;;;10.57;5.53;;;21.50;89.40;;;;;;5009617;28;20136;-63
2022/06/04 00:09:20;;;;;;;8.75;5.43;;;21.50;89.40;;;;;;5008288;28;20560;-62
2022/06/04 00:17:14;;;;;;;15.25;5.82;;;21.50;89.40;;;;;;5031457;28;20083;-63
2022/06/04 00:19:40;;;;;;;13.07;5.13;;;21.50;89.40;;;;;;5026460;28;20523;-63
2022/06/04 00:22:05;;;;;;;8.57;4.55;;;21.40;89.30;;;;;;5010701;28;20874;-63
2022/06/04 00:24:31;;;;;;;8.35;5.15;;;21.40;89.30;;;;;;5009575;28;20082;-63
2022/06/04 00:26:57;;;;;;;10.27;6.07;;;21.40;89.30;;;;;;5027083;28;20033;-63
2022/06/04 00:29:22;;;;;;;13.30;7.03;;;21.40;89.30;;;;;;5027231;28;20096;-63
2022/06/04 00:31:48;;;;;;;11.00;6.32;;;21.50;89.50;;;;;;5026283;28;20484;-63
2022/06/04 00:34:13;;;;;;;10.07;5.53;;;21.40;89.40;;;;;;5024868;28;20483;-63
2022/06/04 00:36:39;;;;;;;10.90;5.85;;;21.40;89.40;;;;;;5025439;28;20127;-63
2022/06/04 00:39:04;;;;;;;9.07;6.00;;;21.40;89.40;;;;;;5011530;28;20028;-63
2022/06/04 00:41:44;;;;;;;8.75;5.40;;;21.40;89.50;;;;;;5027624;28;20045;-63
2022/06/04 00:44:09;;;;;;;11.40;5.60;;;21.30;89.50;;;;;;5027982;28;20017;-62
2022/06/04 00:46:41;;;;;;;13.85;5.95;;;21.30;89.50;;;;;;5042937;28;20326;-62
2022/06/04 00:49:07;;;;;;;6.80;4.85;;;21.30;89.60;;;;;;5041445;28;20098;-62
2022/06/04 00:51:33;;;;;;;9.23;5.10;;;21.30;89.70;;;;;;5010478;28;20048;-63
2022/06/04 00:53:59;;;;;;;6.68;5.20;;;21.30;89.80;;;;;;5027610;28;20625;-63
2022/06/04 00:56:28;;;;;;;8.02;4.93;;;21.30;89.80;;;;;;5025393;28;20036;-63
2022/06/04 00:59:05;;;;;;;9.35;5.15;;;21.30;89.70;;;;;;5023680;28;20075;-62
2022/06/04 01:01:48;;;;;;;8.48;4.50;;;21.20;89.70;;;;;;5008652;28;20457;-63
2022/06/04 01:04:49;;;;;;;7.97;4.85;;;21.30;89.80;;;;;;5026470;28;20386;-62
2022/06/04 01:07:34;;;;;;;6.65;4.80;;;21.20;89.70;;;;;;5013190;28;20029;-62
2022/06/04 01:10:21;;;;;;;6.38;4.43;;;21.20;89.80;;;;;;5011149;28;20231;-63
2022/06/04 01:12:56;;;;;;;5.50;4.35;;;21.20;89.80;;;;;;5023007;28;20036;-63
2022/06/04 01:15:24;;;;;;;9.10;4.68;;;21.20;89.90;;;;;;5025215;28;20104;-63
2022/06/04 01:18:16;;;;;;;8.20;4.97;;;21.20;89.80;;;;;;5043138;28;20025;-62
2022/06/04 01:20:50;;;;;;;5.50;4.68;;;21.20;89.90;;;;;;5013605;28;20378;-63
2022/06/04 01:23:49;;;;;;;8.32;4.95;;;21.20;89.90;;;;;;5026434;28;20029;-63
2022/06/04 01:26:34;;;;;;;9.20;4.10;;;21.10;89.90;;;;;;5041966;28;20071;-63
2022/06/04 01:29:09;;;;;;;9.35;4.78;;;21.10;90.00;;;;;;5023794;28;20052;-62
2022/06/04 01:32:00;;;;;;;6.22;4.40;;;21.10;90.00;;;;;;5025953;28;20203;-63
2022/06/04 01:34:31;;;;;;;9.50;4.20;;;21.10;90.00;;;;;;5028680;28;20064;-63
2022/06/04 01:37:00;;;;;;;6.82;4.60;;;21.10;90.10;;;;;;5024938;28;20295;-62
2022/06/04 01:41:03;;;;;;;5.63;3.88;;;21.10;90.10;;;;;;5023768;28;20040;-63
2022/06/04 01:42:12;;;;;;;7.85;4.50;;;21.10;90.10;;;;;;5013092;28;20121;-63
2022/06/04 01:44:38;;;;;;;7.72;4.65;;;21.00;90.10;;;;;;5026243;28;20032;-63
2022/06/04 01:47:04;;;;;;;8.82;4.13;;;21.10;90.10;;;;;;5025382;28;20449;-62
2022/06/04 01:49:43;;;;;;;7.30;4.30;;;21.00;90.10;;;;;;5025488;28;20041;-63
2022/06/04 01:52:16;;;;;;;7.03;4.30;;;21.10;90.10;;;;;;5024222;28;20029;-63
2022/06/04 01:54:57;;;;;;;5.07;4.13;;;21.00;90.00;;;;;;5007033;28;20091;-63
2022/06/04 01:57:32;;;;;;;5.88;5.20;;;21.00;90.00;;;;;;5024543;28;20033;-63
2022/06/04 02:00:24;;;;;;;6.63;4.43;;;21.00;90.00;;;;;;5026255;28;20029;-62
2022/06/04 02:02:54;;;;;;;13.55;4.57;;;21.00;90.00;;;;;;5020188;28;20086;-62
2022/06/04 02:05:25;;;;;;;5.97;4.50;;;21.00;90.00;;;;;;5023073;28;20025;-63
2022/06/04 02:07:52;;;;;;;6.38;4.22;;;21.00;90.00;;;;;;5022957;28;20025;-62
2022/06/04 02:10:40;;;;;;;8.02;4.35;;;21.00;90.00;;;;;;5023664;28;20025;-63
2022/06/04 02:13:08;;;;;;;6.88;4.22;;;21.00;90.10;;;;;;5025723;28;20116;-63
2022/06/04 02:15:57;;;;;;;7.05;4.20;;;20.90;90.40;;;;;;5022536;28;20539;-63
2022/06/04 02:18:23;;;;;;;4.82;3.40;;;20.90;90.20;;;;;;5021948;28;20140;-63
2022/06/04 02:20:48;;;;;;;6.85;3.90;;;20.90;90.20;;;;;;5007288;28;20188;-62
2022/06/04 02:23:14;;;;;;;7.57;3.63;;;20.90;90.20;;;;;;5025156;28;20186;-63
2022/06/04 02:25:39;;;;;;;5.38;4.03;;;20.90;90.20;;;;;;5043162;28;20551;-63
2022/06/04 02:28:06;;;;;;;4.00;3.28;;;21.00;90.20;;;;;;5023087;28;20037;-63
2022/06/04 02:30:47;;;;;;;6.95;4.00;;;20.90;90.10;;;;;;5023478;28;20074;-63
2022/06/04 02:33:23;;;;;;;6.72;3.65;;;20.90;90.20;;;;;;5041276;28;20021;-62
2022/06/04 02:35:54;;;;;;;5.60;3.67;;;20.90;90.30;;;;;;5024214;28;20044;-62
2022/06/04 02:38:30;;;;;;;4.25;3.35;;;20.90;90.30;;;;;;5041422;28;21034;-63
2022/06/04 02:41:03;;;;;;;5.47;3.45;;;20.80;90.20;;;;;;5020821;28;20597;-63
2022/06/04 02:43:38;;;;;;;6.28;3.63;;;20.90;90.20;;;;;;5022529;28;20037;-62
2022/06/04 02:46:22;;;;;;;;;;;20.90;90.20;;;;;;5022529;28;20036;-63
2022/06/04 02:49:03;;;;;;;6.72;3.28;;;20.90;90.20;;;;;;5007450;28;19920;-62
2022/06/04 02:51:50;;;;;;;5.13;3.45;;;20.80;90.20;;;;;;5009434;28;20689;-63
2022/06/04 02:54:33;;;;;;;4.75;3.90;;;20.80;90.20;;;;;;5024634;28;20076;-63
2022/06/04 02:56:59;;;;;;;7.70;4.60;;;20.80;90.20;;;;;;5021607;28;20091;-63
2022/06/04 02:59:25;;;;;;;7.57;4.03;;;20.80;90.30;;;;;;5005509;28;20057;-63
2022/06/04 03:01:52;;;;;;;8.68;3.90;;;20.80;90.30;;;;;;5024554;28;20087;-63
2022/06/04 03:04:17;;;;;;;6.45;3.88;;;20.80;90.20;;;;;;5025081;28;20124;-62
2022/06/04 03:06:43;;;;;;;6.28;4.07;;;20.80;90.30;;;;;;5024099;28;20108;-63
2022/06/04 03:09:10;;;;;;;5.10;4.18;;;20.80;90.30;;;;;;5039694;28;20020;-63
2022/06/04 03:11:43;;;;;;;4.82;3.75;;;20.80;90.30;;;;;;5022451;28;20419;-63
2022/06/04 03:14:08;;;;;;;14.88;4.85;;;20.80;90.40;;;;;;5024844;28;20327;-63
2022/06/04 03:16:36;;;;;;;7.30;4.25;;;20.80;90.30;;;;;;5041299;28;20284;-62
2022/06/04 03:19:02;;;;;;;10.90;4.13;;;20.80;90.20;;;;;;5024708;28;20085;-62
2022/06/04 03:21:28;;;;;;;9.15;4.28;;;20.80;90.30;;;;;;5022504;28;20112;-62
2022/06/04 03:23:53;;;;;;;8.18;4.30;;;20.80;90.30;;;;;;5025072;28;20048;-63
2022/06/04 03:26:19;;;;;;;10.70;4.28;;;20.80;90.30;;;;;;5009215;28;20025;-62
2022/06/04 03:28:44;;;;;;;5.95;4.05;;;20.80;90.40;;;;;;5028011;28;20025;-63
2022/06/04 03:31:10;;;;;;;9.38;4.10;;;20.80;90.40;;;;;;5027699;28;20075;-63
2022/06/04 03:33:35;;;;;;;7.03;4.38;;;20.70;90.40;;;;;;5010860;28;20033;-63
2022/06/04 03:36:01;;;;;;;6.30;5.28;;;20.70;90.40;;;;;;5025098;28;20316;-62
2022/06/04 03:38:26;;;;;;;6.28;5.45;;;20.80;90.50;;;;;;5025332;28;20113;-63
2022/06/04 03:40:52;;;;;;;6.15;5.00;;;20.70;90.40;;;;;;5025550;28;20136;-62
2022/06/04 03:43:17;;;;;;;9.65;4.30;;;20.80;90.50;;;;;;5026027;28;20021;-62
2022/06/04 03:45:43;;;;;;;6.47;4.55;;;20.70;90.50;;;;;;5027594;28;20109;-63
2022/06/04 03:48:08;;;;;;;7.82;4.22;;;20.70;90.50;;;;;;5026438;28;20472;-62
2022/06/04 03:50:34;;;;;;;6.55;4.45;;;20.70;90.50;;;;;;5025852;28;20037;-63
2022/06/04 03:52:59;;;;;;;7.43;4.15;;;20.70;90.50;;;;;;5010426;28;20029;-62
2022/06/04 03:55:25;;;;;;;8.18;4.43;;;20.70;90.50;;;;;;5008398;28;20504;-63
2022/06/04 03:57:52;;;;;;;6.07;3.92;;;20.70;90.60;;;;;;5027267;28;20080;-63
2022/06/04 04:00:26;;;;;;;10.82;4.35;;;20.70;90.60;;;;;;5026144;28;20067;-62
2022/06/04 04:02:57;;;;;;;7.68;4.25;;;20.70;90.70;;;;;;5026289;28;20052;-62
2022/06/04 04:05:29;;;;;;;7.93;3.92;;;20.70;90.70;;;;;;5025202;28;20013;-62
2022/06/04 04:07:55;;;;;;;8.55;3.38;;;20.70;90.70;;;;;;5007702;28;20025;-63
2022/06/04 04:10:21;;;;;;;6.45;3.88;;;20.70;90.70;;;;;;5025309;28;20021;-62
2022/06/04 04:12:46;;;;;;;8.45;3.92;;;20.70;90.60;;;;;;5026522;28;20109;-63
2022/06/04 04:15:12;;;;;;;4.95;3.63;;;20.70;90.60;;;;;;5025242;28;20752;-62
2022/06/04 04:17:39;;;;;;;5.38;3.70;;;20.70;90.60;;;;;;5023226;28;20609;-63
2022/06/04 04:20:07;;;;;;;4.97;3.67;;;20.70;90.60;;;;;;5026240;28;20024;-63
2022/06/04 04:22:32;;;;;;;6.22;3.95;;;20.70;90.80;;;;;;5027696;28;20051;-63
2022/06/04 04:24:58;;;;;;;9.60;3.60;;;20.70;91.00;;;;;;5026628;28;20021;-63
2022/06/04 04:27:23;;;;;;;6.78;3.42;;;20.60;91.00;;;;;;5024176;28;20041;-62
2022/06/04 04:29:49;;;;;;;4.78;3.88;;;20.70;91.00;;;;;;5025319;28;20416;-62
2022/06/04 04:32:14;;;;;;;5.75;3.10;;;20.60;91.00;;;;;;5026248;28;20021;-62
2022/06/04 04:34:40;;;;;;;8.18;3.42;;;20.60;91.10;;;;;;5026652;28;20120;-63
2022/06/04 04:37:05;;;;;;;6.90;3.40;;;20.60;91.10;;;;;;5025930;28;20186;-63
2022/06/04 04:39:31;;;;;;;8.07;2.90;;;20.60;91.10;;;;;;5026094;28;20089;-62
2022/06/04 04:41:57;;;;;;;7.07;3.28;;;20.60;91.10;;;;;;5024757;28;20117;-63
2022/06/04 04:44:22;;;;;;;4.38;3.10;;;20.60;91.10;;;;;;5025236;28;20483;-62
2022/06/04 04:46:51;;;;;;;5.80;3.33;;;20.60;91.10;;;;;;5026051;28;20420;-63
2022/06/04 04:49:16;;;;;;;5.78;3.53;;;20.60;91.10;;;;;;5008095;28;20032;-62
2022/06/04 04:51:42;;;;;;;6.68;3.40;;;20.60;91.10;;;;;;5007844;28;20044;-63
2022/06/04 04:54:07;;;;;;;6.95;3.20;;;20.60;91.10;;;;;;5024353;28;20084;-62
2022/06/04 04:56:33;;;;;;;4.95;3.25;;;20.60;91.10;;;;;;5042617;28;20745;-62
2022/06/04 04:58:58;;;;;;;4.78;2.85;;;20.60;91.20;;;;;;5025675;28;20380;-63
2022/06/04 05:01:25;;;;;;;4.32;3.30;;;20.60;91.20;;;;;;5026441;28;20029;-63
2022/06/04 05:03:51;;;;;;;5.72;3.00;;;20.60;91.10;;;;;;5025885;28;20075;-62
2022/06/04 05:06:17;;;;;;;5.47;2.90;;;20.60;91.00;;;;;;5024280;28;20110;-62
2022/06/04 05:08:43;;;;;;;7.50;3.13;;;20.60;91.00;;;;;;5007751;28;20052;-61
2022/06/04 05:11:17;;;;;;;3.60;2.90;;;20.50;91.00;;;;;;5009427;28;20070;-63
2022/06/04 05:13:42;;;;;;;6.57;3.30;;;20.60;91.10;;;;;;5044305;28;20108;-62
2022/06/04 05:16:08;;;;;;;2.80;2.50;;;20.50;91.10;;;;;;5013125;28;20244;-62
2022/06/04 05:18:34;;;;;;;4.25;3.00;;;20.50;91.10;;;;;;5008155;28;20032;-62
2022/06/04 05:21:11;;;;;;;24.17;5.13;;;20.40;91.20;;;;;;5024308;28;20037;-62
2022/06/04 05:23:37;;;;;;;42.05;6.30;;;20.40;91.20;;;;;;5022803;28;20353;-63
2022/06/04 05:26:02;;;;;;;27.88;4.85;;;20.40;91.20;;;;;;5025539;28;20033;-62
2022/06/04 05:28:28;;;;;;;12.02;4.00;;;20.50;91.10;;;;;;5026043;28;20103;-63
2022/06/04 05:30:53;;;;;;;22.98;4.90;;;20.40;91.40;;;;;;5025413;28;20037;-62
2022/06/04 05:33:20;;;;;;;16.88;3.70;;;20.40;91.50;;;;;;5041838;28;20040;-62
2022/06/04 05:35:45;;;;;;;17.30;4.65;;;20.50;91.50;;;;;;5023803;28;20045;-62
2022/06/04 05:38:11;;;;;;;16.52;4.25;;;20.50;91.50;;;;;;5025578;28;20393;-62
2022/06/04 05:40:36;;;;;;;17.48;4.35;;;20.50;91.40;;;;;;5025619;28;20465;-62
2022/06/04 05:43:02;;;;;;;13.77;4.10;;;20.50;91.40;;;;;;5025977;28;20029;-62
2022/06/04 05:45:27;;;;;;;15.10;4.10;;;20.50;91.40;;;;;;5022483;28;20423;-62
2022/06/04 05:47:53;;;;;;;14.63;3.88;;;20.50;91.30;;;;;;5018739;28;20523;-63
2022/06/04 05:50:18;;;;;;;16.15;4.53;;;20.50;91.20;;;;;;5025083;28;20049;-63
2022/06/04 05:52:44;;;;;;;15.38;3.67;;;20.50;91.20;;;;;;5026097;28;20091;-62
2022/06/04 05:55:10;;;;;;;16.38;4.15;;;20.60;91.20;;;;;;5025324;28;20928;-62
2022/06/04 05:57:35;;;;;;;11.27;3.67;;;20.60;91.10;;;;;;5024397;28;20075;-63
2022/06/04 06:00:01;;;;;;;9.38;2.97;;;20.60;91.10;;;;;;5023436;28;20500;-63
2022/06/04 06:02:26;;;;;;;18.08;3.67;;;20.50;91.10;;;;;;5022865;28;20029;-63
2022/06/04 06:04:52;;;;;;;12.13;3.75;;;20.60;91.10;;;;;;5024953;28;20033;-62
2022/06/04 06:07:17;;;;;;;12.68;4.18;;;20.60;91.10;;;;;;5007578;28;20099;-63
2022/06/04 06:09:44;;;;;;;23.65;4.28;;;20.60;91.20;;;;;;5024106;28;20036;-62
2022/06/04 06:12:10;;;;;;;19.10;4.40;;;20.60;90.80;;;;;;5041406;28;20052;-63
2022/06/04 06:14:36;;;;;;;18.58;4.40;;;20.60;90.80;;;;;;5019216;28;20448;-61
2022/06/04 06:17:01;;;;;;;11.27;3.30;;;20.60;90.70;;;;;;5042559;28;20182;-64
2022/06/04 06:19:27;;;;;;;7.43;3.42;;;20.60;90.80;;;;;;5022963;28;20118;-62
2022/06/04 06:21:52;;;;;;;15.15;3.40;;;20.60;90.80;;;;;;5021778;28;20440;-63
2022/06/04 06:24:20;;;;;;;13.52;3.00;;;20.60;90.80;;;;;;5022940;28;20520;-62
2022/06/04 06:26:52;;;;;;;16.85;3.85;;;20.60;90.80;;;;;;5022493;28;20052;-62
2022/06/04 06:29:18;;;;;;;16.85;3.70;;;20.60;90.80;;;;;;5022737;28;20134;-62
2022/06/04 06:31:43;;;;;;;15.38;3.53;;;20.70;90.90;;;;;;5022962;28;20109;-63
2022/06/04 06:34:09;;;;;;;11.45;3.03;;;20.70;90.90;;;;;;5023795;28;20523;-63
2022/06/04 06:36:34;;;;;;;12.75;3.35;;;20.70;90.90;;;;;;5019624;28;20076;-62
2022/06/04 06:39:00;;;;;;;10.98;2.70;;;20.70;91.00;;;;;;5033762;28;20116;-63
2022/06/04 06:41:26;;;;;;;8.52;3.28;;;20.70;91.10;;;;;;5018190;28;20303;-63
2022/06/04 06:43:51;;;;;;;11.80;2.97;;;20.70;91.10;;;;;;5004123;28;20401;-62
2022/06/04 06:46:24;;;;;;;11.05;2.90;;;20.70;91.10;;;;;;5020257;28;20108;-62
2022/06/04 06:48:53;;;;;;;7.93;2.80;;;20.70;91.00;;;;;;5005247;28;20053;-63
2022/06/04 06:51:24;;;;;;;12.95;3.20;;;20.70;91.30;;;;;;5019226;28;20125;-63
2022/06/04 06:53:50;;;;;;;11.68;3.22;;;20.70;91.30;;;;;;5000286;28;20044;-63
2022/06/04 06:56:20;;;;;;;12.75;2.75;;;20.70;91.30;;;;;;5003541;28;20026;-63
2022/06/04 06:58:46;;;;;;;10.68;2.90;;;20.70;91.30;;;;;;5023409;28;20021;-63
2022/06/04 07:01:12;;;;;;;9.32;3.08;;;20.70;91.30;;;;;;5007891;28;20428;-63
2022/06/04 07:03:38;;;;;;;8.32;2.90;;;20.70;91.30;;;;;;5003651;28;20053;-62
2022/06/04 07:06:04;;;;;;;11.70;2.95;;;20.80;91.30;;;;;;5006224;28;20022;-63
2022/06/04 07:08:30;;;;;;;10.50;2.80;;;20.80;91.30;;;;;;5022595;28;20116;-63
2022/06/04 07:10:55;;;;;;;11.93;2.80;;;20.80;91.30;;;;;;5023424;28;20445;-63
2022/06/04 07:13:21;;;;;;;8.10;2.78;;;20.70;91.30;;;;;;5023607;28;20507;-63
2022/06/04 07:15:46;;;;;;;9.43;2.38;;;20.80;91.30;;;;;;5023119;28;20112;-62
2022/06/04 07:18:12;;;;;;;12.00;2.85;;;20.80;91.30;;;;;;5021287;28;20129;-63
2022/06/04 07:20:38;;;;;;;9.10;2.65;;;20.70;91.30;;;;;;5005709;28;20241;-63
2022/06/04 07:23:04;;;;;;;11.05;2.63;;;20.80;91.30;;;;;;5005133;28;20036;-62
2022/06/04 07:25:30;;;;;;;5.70;2.13;;;20.80;91.30;;;;;;5025164;28;20030;-63
2022/06/04 07:27:55;;;;;;;10.30;2.30;;;20.80;91.10;;;;;;5007680;28;20104;-63
2022/06/04 07:30:21;;;;;;;7.50;3.00;;;20.80;91.20;;;;;;5023203;28;20537;-62
2022/06/04 07:32:46;;;;;;;8.15;2.85;;;20.80;91.30;;;;;;5019687;28;20547;-64
2022/06/04 07:35:12;;;;;;;5.45;2.60;;;20.90;91.30;;;;;;5021050;28;20067;-63
2022/06/04 07:37:38;;;;;;;8.35;2.42;;;20.80;91.10;;;;;;5022448;28;20101;-63
2022/06/04 07:40:04;;;;;;;5.80;2.40;;;20.80;91.30;;;;;;5026419;28;20039;-63
2022/06/04 07:42:29;;;;;;;5.85;2.47;;;20.80;91.30;;;;;;5021292;28;20055;-63
2022/06/04 07:44:57;;;;;;;8.85;2.40;;;20.80;91.10;;;;;;5024442;28;20048;-62
2022/06/04 07:47:24;;;;;;;10.40;2.58;;;20.80;91.10;;;;;;5019521;28;20457;-63
2022/06/04 07:49:49;;;;;;;8.05;2.22;;;20.80;91.00;;;;;;5023873;28;20032;-62
2022/06/04 07:52:15;;;;;;;4.88;2.45;;;20.80;90.90;;;;;;5026130;28;20036;-62
2022/06/04 07:54:40;;;;;;;6.63;2.70;;;20.90;91.00;;;;;;5037178;28;20025;-63
2022/06/04 07:57:06;;;;;;;4.60;2.28;;;20.90;91.10;;;;;;5023993;28;20041;-63
2022/06/04 07:59:32;;;;;;;9.55;2.67;;;20.90;90.80;;;;;;5024104;28;20129;-62
2022/06/04 08:01:57;;;;;;;9.32;2.53;;;20.90;91.00;;;;;;5004393;28;20029;-63
2022/06/04 08:04:23;;;;;;;3.83;2.35;;;20.90;91.50;;;;;;5033694;28;20036;-62
2022/06/04 08:06:48;;;;;;;7.75;2.47;;;20.90;91.50;;;;;;5024006;28;20787;-63
2022/06/04 08:09:14;;;;;;;5.05;2.17;;;20.80;91.40;;;;;;5005011;28;20041;-62
2022/06/04 08:11:39;;;;;;;5.68;2.35;;;20.80;91.50;;;;;;5043809;28;20033;-62
2022/06/04 08:14:16;;;;;;;10.63;2.28;;;20.80;91.60;;;;;;5023919;28;20037;-63
2022/06/04 08:16:44;;;;;;;20.98;3.60;;;20.80;91.70;;;;;;5038439;28;20116;-62
2022/06/04 08:19:10;;;;;;;26.42;3.60;;;20.80;91.70;;;;;;5022261;28;20477;-63
2022/06/04 08:21:36;;;;;;;31.52;4.28;;;20.80;91.50;;;;;;5017540;28;20047;-62
2022/06/04 08:24:02;;;;;;;23.25;3.63;;;20.80;91.30;;;;;;5036196;28;20033;-62
2022/06/04 08:26:28;;;;;;;27.00;4.20;;;20.90;91.20;;;;;;5022886;28;20043;-62
2022/06/04 08:28:53;;;;;;;28.50;4.13;;;20.90;91.10;;;;;;5024366;28;20059;-62
2022/06/04 08:31:19;;;;;;;19.52;3.83;;;20.90;91.00;;;;;;5024675;28;20053;-62
2022/06/04 08:33:44;;;;;;;18.90;3.75;;;20.90;90.80;;;;;;5020561;28;20857;-63
2022/06/04 08:36:11;;;;;;;30.08;5.00;;;20.90;90.70;;;;;;4981729;28;20045;-62
2022/06/04 08:38:37;;;;;;;29.55;4.90;;;21.00;90.60;;;;;;4999121;28;20083;-63
2022/06/04 08:41:05;;;;;;;24.95;4.18;;;21.00;90.50;;;;;;5015060;28;20440;-62
2022/06/04 08:43:33;;;;;;;29.08;4.18;;;21.00;90.30;;;;;;5018330;28;20120;-63
2022/06/04 08:46:02;;;;;;;29.63;3.95;;;21.00;90.10;;;;;;5037940;28;20037;-63
2022/06/04 08:48:30;;;;;;;41.92;5.32;;;21.10;90.20;;;;;;5018647;28;20041;-63
2022/06/04 08:50:55;;;;;;;30.25;4.53;;;21.10;90.20;;;;;;5016623;28;20078;-62
2022/06/04 08:53:24;;;;;;;42.22;4.95;;;21.10;90.10;;;;;;5018777;28;20707;-63
2022/06/04 08:59:06;;;;;;;56.60;6.13;;;21.20;89.70;;;;;;5013954;28;21492;-63
2022/06/04 09:01:40;;;;;;;54.42;7.32;;;21.20;89.30;;;;;;5022826;28;20337;-62
2022/06/04 09:04:26;;;;;;;58.03;6.88;;;21.30;89.40;;;;;;5018257;28;20035;-62
2022/06/04 09:07:12;;;;;;;106.10;10.63;;;21.30;88.80;;;;;;5018414;28;20037;-62
2022/06/04 09:09:42;;;;;;;;;;;21.30;89.20;;;;;;5039381;28;20046;-62
2022/06/04 09:12:33;;;;;;;76.75;8.82;;;21.40;89.40;;;;;;5019479;28;20358;-63
2022/06/04 09:15:20;;;;;;;68.30;9.60;;;21.40;89.60;;;;;;5021339;28;20512;-62
2022/06/04 09:17:52;;;;;;;69.53;8.68;;;21.50;90.00;;;;;;5018277;28;20468;-62
2022/06/04 09:20:28;;;;;;;83.72;9.27;;;21.50;90.10;;;;;;5034043;28;20131;-63
2022/06/04 09:23:00;;;;;;;68.05;9.15;;;21.50;90.20;;;;;;5017277;28;20047;-63
2022/06/04 09:25:27;;;;;;;58.45;7.57;;;21.50;90.30;;;;;;4998985;28;20987;-62
2022/06/04 09:28:09;;;;;;;88.13;10.13;;;21.60;90.40;;;;;;4999402;28;20045;-63
2022/06/04 09:30:36;;;;;;;90.38;11.02;;;21.60;90.50;;;;;;5027788;28;20125;-62
2022/06/04 09:33:07;;;;;;;75.50;10.05;;;21.70;90.60;;;;;;5017733;28;20118;-63
2022/06/04 09:35:39;;;;;;;85.55;10.23;;;21.70;90.40;;;;;;5035180;28;20056;-63
2022/06/04 09:38:05;;;;;;;88.28;11.35;;;21.70;90.40;;;;;;5008437;28;20045;-62
2022/06/04 09:40:32;;;;;;;119.32;12.18;;;21.80;90.40;;;;;;4992974;28;20095;-63
2022/06/04 09:43:11;;;;;;;106.40;11.30;;;21.80;90.40;;;;;;5016867;28;20044;-63
2022/06/04 09:45:37;;;;;;;104.88;11.90;;;21.80;90.40;;;;;;5002113;28;20029;-63
2022/06/04 09:48:12;;;;;;;110.57;13.35;;;21.80;90.40;;;;;;5036365;28;20024;-63
2022/06/04 09:50:38;;;;;;;95.38;12.40;;;21.90;90.60;;;;;;5031319;28;20041;-62
2022/06/04 09:53:09;;;;;;;105.70;11.90;;;21.90;90.40;;;;;;5013242;28;20051;-63
2022/06/04 09:55:34;;;;;;;92.28;11.70;;;21.90;90.30;;;;;;5015834;28;20098;-62
2022/06/04 09:58:16;;;;;;;93.47;13.30;;;22.00;90.40;;;;;;4997890;28;20025;-63
2022/06/04 10:00:52;;;;;;;89.15;10.88;;;22.00;90.30;;;;;;5030855;28;20577;-62
2022/06/04 10:03:18;;;;;;;82.35;10.15;;;22.00;90.20;;;;;;4993866;28;20033;-62
2022/06/04 10:05:51;;;;;;;86.00;10.43;;;22.10;90.10;;;;;;5016284;28;20033;-63
2022/06/04 10:08:24;;;;;;;88.07;10.40;;;22.10;89.80;;;;;;5018421;28;20044;-63
2022/06/04 10:10:57;;;;;;;112.03;12.73;;;22.20;89.50;;;;;;5003165;28;20017;-61
2022/06/04 10:13:44;;;;;;;83.85;11.25;;;22.20;89.30;;;;;;5002471;28;21594;-62
2022/06/04 10:16:15;;;;;;;124.72;13.88;;;22.20;89.10;;;;;;5003137;28;20594;-63
2022/06/04 10:18:51;;;;;;;134.48;17.33;;;22.30;89.00;;;;;;4983280;28;20033;-62
2022/06/04 10:21:19;;;;;;;109.03;14.43;;;22.30;88.50;;;;;;5002051;28;20057;-63
2022/06/04 10:23:46;;;;;;;171.32;17.60;;;22.50;88.20;;;;;;4993607;28;20041;-63
2022/06/04 10:26:14;;;;;;;93.85;11.05;;;22.40;87.70;;;;;;5012767;28;20025;-62
2022/06/04 10:28:57;;;;;;;118.43;12.40;;;22.50;87.30;;;;;;5012923;28;20033;-62
2022/06/04 10:31:32;;;;;;;110.18;12.80;;;22.50;86.90;;;;;;5012784;28;20046;-62
2022/06/04 10:34:03;;;;;;;101.13;13.02;;;22.60;86.70;;;;;;5034764;28;20029;-63
2022/06/04 10:36:56;;;;;;;112.57;12.32;;;22.50;86.30;;;;;;5015248;28;20045;-62
2022/06/04 10:39:38;;;;;;;121.63;15.30;;;22.60;86.10;;;;;;5018711;28;20390;-64
2022/06/04 10:42:05;;;;;;;135.98;13.90;;;22.60;85.60;;;;;;5005339;28;20028;-63
2022/06/04 10:44:45;;;;;;;103.63;14.45;;;22.70;85.50;;;;;;5041315;28;20032;-62
2022/06/04 10:47:28;;;;;;;156.57;18.10;;;22.70;85.30;;;;;;5022190;28;20550;-62
2022/06/04 10:50:12;;;;;;;111.05;12.57;;;22.80;85.80;;;;;;5022111;28;20029;-63
2022/06/04 10:52:51;;;;;;;127.90;16.23;;;22.90;84.60;;;;;;5039254;28;20056;-62
2022/06/04 10:55:40;;;;;;;89.15;12.98;;;22.90;84.30;;;;;;5023987;28;20767;-63
2022/06/04 10:58:26;;;;;;;84.25;11.57;;;23.10;83.70;;;;;;5036637;28;20858;-63
2022/06/04 11:01:17;;;;;;;89.60;12.30;;;23.10;83.30;;;;;;5021520;28;20040;-63
2022/06/04 11:03:48;;;;;;;106.25;13.70;;;23.20;82.90;;;;;;5018323;28;20047;-62
2022/06/04 11:06:18;;;;;;;105.47;11.80;;;23.30;82.40;;;;;;5037355;28;20039;-63
2022/06/04 11:09:03;;;;;;;134.60;15.45;;;23.40;81.70;;;;;;5006327;28;20049;-62
2022/06/04 11:11:37;;;;;;;105.72;13.70;;;23.60;81.50;;;;;;5021233;28;20025;-62
2022/06/04 11:14:07;;;;;;;75.53;11.07;;;23.70;81.10;;;;;;5017288;28;20033;-63
2022/06/04 11:16:43;;;;;;;119.00;12.98;;;23.80;80.40;;;;;;5002701;28;20610;-63
2022/06/04 11:19:15;;;;;;;110.57;14.13;;;23.80;79.90;;;;;;5001910;28;20040;-62
2022/06/04 11:21:53;;;;;;;114.28;15.68;;;23.90;79.70;;;;;;5021284;28;20040;-62
2022/06/04 11:24:19;;;;;;;123.03;15.00;;;24.10;79.50;;;;;;5014914;28;20043;-65
2022/06/04 11:26:47;;;;;;;141.68;16.05;;;24.20;79.30;;;;;;5017190;28;20170;-62
2022/06/04 11:29:14;;;;;;;108.80;17.00;;;24.20;78.90;;;;;;5017313;28;20029;-62
2022/06/04 11:31:55;;;;;;;110.60;15.32;;;24.30;78.60;;;;;;5035238;28;20410;-62
2022/06/04 11:34:42;;;;;;;125.78;14.85;;;24.50;78.00;;;;;;5019792;28;20029;-62
2022/06/04 11:37:36;;;;;;;117.53;14.20;;;24.60;77.70;;;;;;5036755;28;20510;-62
2022/06/04 11:40:04;;;;;;;131.77;16.35;;;24.60;76.80;;;;;;5020793;28;20045;-62
2022/06/04 11:42:51;;;;;;;112.40;12.98;;;24.70;77.10;;;;;;5037181;28;20033;-63
2022/06/04 11:45:39;;;;;;;132.63;15.55;;;24.80;76.30;;;;;;5006237;28;20041;-62
2022/06/04 11:48:22;;;;;;;129.50;16.10;;;24.90;76.00;;;;;;5022803;28;20464;-62
2022/06/04 11:51:18;;;;;;;118.55;14.10;;;25.00;75.80;;;;;;5035324;28;20115;-62
2022/06/04 11:53:55;;;;;;;116.90;14.35;;;25.10;75.30;;;;;;5008127;28;20620;-63
2022/06/04 11:56:32;;;;;;;70.75;11.23;;;25.20;74.50;;;;;;5016091;28;20037;-62
2022/06/04 11:59:09;;;;;;;87.35;10.48;;;25.30;73.70;;;;;;5015071;28;20025;-62
2022/06/04 12:01:45;;;;;;;100.45;13.20;;;25.30;73.90;;;;;;5012157;28;20049;-62
2022/06/04 12:04:13;;;;;;;;;;;25.40;73.00;;;;;;5011972;28;20227;-63
2022/06/04 12:06:42;;;;;;;62.97;8.95;;;25.40;73.00;;;;;;5036705;28;20355;-62
2022/06/04 12:09:31;;;;;;;61.45;8.43;;;25.50;72.90;;;;;;5018878;28;20055;-62
2022/06/04 12:12:08;;;;;;;64.97;7.45;;;25.50;73.00;;;;;;4983531;28;20025;-62
2022/06/04 12:14:40;;;;;;;54.15;8.02;;;25.60;72.40;;;;;;5035925;28;20032;-62
2022/06/04 12:17:12;;;;;;;96.53;13.32;;;25.60;72.30;;;;;;5020643;28;20041;-62
2022/06/04 12:25:36;;;;;;;71.75;10.65;;;26.00;72.20;;;;;;5019373;28;20095;-62
2022/06/04 12:28:15;;;;;;;62.45;9.73;;;26.00;71.60;;;;;;5043450;28;20511;-63
2022/06/04 12:30:42;;;;;;;119.63;14.38;;;26.10;71.30;;;;;;5014922;28;20032;-62
2022/06/04 12:33:17;;;;;;;73.00;9.30;;;26.20;71.10;;;;;;5016692;28;20044;-62
2022/06/04 12:35:42;;;;;;;79.55;10.75;;;26.30;71.10;;;;;;5018675;28;20169;-63
2022/06/04 12:38:12;;;;;;;93.97;11.80;;;26.10;70.50;;;;;;4981768;28;20037;-62
2022/06/04 12:40:38;;;;;;;75.65;9.85;;;26.40;70.60;;;;;;5012200;28;20029;-62
2022/06/04 12:43:18;;;;;;;51.97;7.63;;;26.50;70.20;;;;;;5017296;28;20024;-63
2022/06/04 12:45:51;;;;;;;41.90;7.95;;;26.60;69.90;;;;;;5034487;28;20049;-63
2022/06/04 12:48:32;;;;;;;57.05;9.48;;;26.70;70.00;;;;;;5018129;28;20025;-63
2022/06/04 12:51:36;;;;;;;45.47;7.15;;;26.70;69.90;;;;;;5027410;28;20037;-63
2022/06/04 12:54:16;;;;;;;57.47;8.57;;;26.80;69.50;;;;;;5037716;28;20075;-63
2022/06/04 12:56:41;;;;;;;65.72;7.65;;;26.90;69.50;;;;;;5019678;28;20029;-62
2022/06/04 12:59:27;;;;;;;53.60;8.20;;;27.00;69.10;;;;;;5037270;28;20646;-63
2022/06/04 13:01:53;;;;;;;47.17;7.20;;;27.10;69.10;;;;;;5006122;28;20117;-63
2022/06/04 13:04:20;;;;;;;42.03;6.38;;;27.20;68.80;;;;;;4989487;28;20203;-63
2022/06/04 13:07:16;;;;;;;38.75;5.85;;;27.30;68.20;;;;;;5021380;28;20101;-63
2022/06/04 13:09:55;;;;;;;47.45;6.38;;;27.30;67.30;;;;;;4993658;28;20674;-63
2022/06/04 13:12:42;;;;;;;40.28;7.00;;;27.50;67.30;;;;;;4995916;28;20128;-63